METAR SBMG

2017101816 - METAR SBMG 181600Z 01016G30KT CAVOK 35/18 Q1013=

Escala PR-FEA

ESCALA - SIMULADOR GA-18

Escala PR-FGM
Powered by ©Kanestech